createdAt,value
2019-04-07T00:00:09.341Z,985.01
2019-04-07T00:01:09.360Z,985.10
2019-04-07T00:02:09.326Z,985.10
2019-04-07T00:03:09.314Z,985.02
2019-04-07T00:04:09.335Z,985.08
2019-04-07T00:05:13.581Z,985.12
2019-04-07T00:06:09.683Z,985.06
2019-04-07T00:07:09.316Z,985.06
2019-04-07T00:08:09.244Z,985.04
2019-04-07T00:09:09.715Z,985.00
2019-04-07T00:10:09.852Z,984.98
2019-04-07T00:11:09.414Z,984.96
2019-04-07T00:12:09.522Z,985.00
2019-04-07T00:13:09.196Z,984.95
2019-04-07T00:14:09.181Z,984.95
2019-04-07T00:15:09.202Z,984.99
2019-04-07T00:16:09.786Z,984.96
2019-04-07T00:17:09.344Z,984.99
2019-04-07T00:18:09.193Z,984.93
2019-04-07T00:19:09.131Z,984.92
2019-04-07T00:20:09.132Z,984.98
2019-04-07T00:21:09.102Z,985.00
2019-04-07T00:22:09.180Z,984.92
2019-04-07T00:23:09.601Z,984.93
2019-04-07T00:24:09.244Z,984.98
2019-04-07T00:25:09.069Z,984.98
2019-04-07T00:26:09.753Z,985.00
2019-04-07T00:27:09.109Z,985.00
2019-04-07T00:28:09.035Z,984.98
2019-04-07T00:29:09.045Z,984.96
2019-04-07T00:30:09.006Z,985.00
2019-04-07T00:31:09.004Z,985.03
2019-04-07T00:32:09.007Z,985.04
2019-04-07T00:33:08.986Z,984.94
2019-04-07T00:34:09.630Z,984.99
2019-04-07T00:35:08.996Z,984.97
2019-04-07T00:36:09.569Z,985.01
2019-04-07T00:37:09.041Z,984.93
2019-04-07T00:38:09.546Z,984.97
2019-04-07T00:39:09.476Z,984.98
2019-04-07T00:40:09.583Z,984.99
2019-04-07T00:41:09.528Z,984.97
2019-04-07T00:42:09.421Z,984.99
2019-04-07T00:43:08.864Z,984.97
2019-04-07T00:44:08.872Z,984.99
2019-04-07T00:45:08.931Z,985.07
2019-04-07T00:46:08.882Z,985.05
2019-04-07T00:47:09.420Z,985.00
2019-04-07T00:48:09.049Z,984.97
2019-04-07T00:49:09.469Z,985.02
2019-04-07T00:50:08.839Z,984.95
2019-04-07T00:51:08.794Z,984.99
2019-04-07T00:52:09.407Z,984.98
2019-04-07T00:53:08.885Z,985.00
2019-04-07T00:54:09.304Z,984.98
2019-04-07T00:55:08.905Z,985.00
2019-04-07T00:56:09.307Z,985.00
2019-04-07T00:57:08.720Z,984.99
2019-04-07T00:58:08.794Z,985.07
2019-04-07T00:59:08.847Z,984.96
2019-04-07T01:00:08.691Z,984.96
2019-04-07T01:01:09.103Z,984.94
2019-04-07T01:02:09.061Z,984.98
2019-04-07T01:03:08.716Z,984.92
2019-04-07T01:04:08.940Z,984.98
2019-04-07T01:05:08.642Z,984.89
2019-04-07T01:06:08.728Z,985.03
2019-04-07T01:07:09.119Z,984.95
2019-04-07T01:08:08.607Z,984.96
2019-04-07T01:09:09.151Z,984.97
2019-04-07T01:10:08.735Z,985.00
2019-04-07T01:11:08.863Z,984.99
2019-04-07T01:12:09.376Z,985.02
2019-04-07T01:13:08.576Z,984.96
2019-04-07T01:14:09.337Z,984.90
2019-04-07T01:15:08.687Z,984.95
2019-04-07T01:16:08.513Z,984.90
2019-04-07T01:17:08.552Z,984.94
2019-04-07T01:18:08.785Z,984.92
2019-04-07T01:19:08.820Z,984.90
2019-04-07T01:20:09.010Z,984.86
2019-04-07T01:21:08.445Z,984.91
2019-04-07T01:22:09.032Z,984.92
2019-04-07T01:23:08.436Z,984.93
2019-04-07T01:24:08.785Z,984.90
2019-04-07T01:25:08.960Z,984.89
2019-04-07T01:26:08.572Z,984.85
2019-04-07T01:27:08.390Z,984.87
2019-04-07T01:28:08.397Z,984.82
2019-04-07T01:29:08.387Z,984.80
2019-04-07T01:30:08.350Z,984.84
2019-04-07T01:31:08.794Z,984.84
2019-04-07T01:32:08.775Z,984.88
2019-04-07T01:33:08.725Z,984.95
2019-04-07T01:34:08.380Z,984.89
2019-04-07T01:35:08.294Z,984.92
2019-04-07T01:36:08.343Z,984.98
2019-04-07T01:37:08.765Z,984.90
2019-04-07T01:38:08.272Z,984.82
2019-04-07T01:39:08.706Z,984.86
2019-04-07T01:40:08.239Z,984.90
2019-04-07T01:41:08.224Z,984.90
2019-04-07T01:42:08.237Z,984.89
2019-04-07T01:43:08.500Z,984.85
2019-04-07T01:44:08.194Z,984.82
2019-04-07T01:45:08.194Z,984.77
2019-04-07T01:46:08.856Z,984.82
2019-04-07T01:47:08.835Z,984.79
2019-04-07T01:48:08.808Z,984.84
2019-04-07T01:49:10.127Z,984.80
2019-04-07T01:50:08.214Z,984.73
2019-04-07T01:51:08.175Z,984.73
2019-04-07T01:52:08.357Z,984.76
2019-04-07T01:53:08.121Z,984.78
2019-04-07T01:54:08.644Z,984.77
2019-04-07T01:55:08.075Z,984.71
2019-04-07T01:56:08.065Z,984.79
2019-04-07T01:57:08.051Z,984.77
2019-04-07T01:58:08.065Z,984.70
2019-04-07T01:59:10.511Z,984.76
2019-04-07T02:00:08.395Z,984.76
2019-04-07T02:01:08.138Z,984.73
2019-04-07T02:02:08.115Z,984.74
2019-04-07T02:03:08.002Z,984.68
2019-04-07T02:04:08.164Z,984.70
2019-04-07T02:05:08.254Z,984.60
2019-04-07T02:06:07.948Z,984.62
2019-04-07T02:07:08.177Z,984.63
2019-04-07T02:08:07.928Z,984.66
2019-04-07T02:09:08.244Z,984.62
2019-04-07T02:10:08.682Z,984.60
2019-04-07T02:11:07.951Z,984.60
2019-04-07T02:12:07.900Z,984.57
2019-04-07T02:13:08.485Z,984.61
2019-04-07T02:14:08.658Z,984.56
2019-04-07T02:15:08.514Z,984.53
2019-04-07T02:16:08.144Z,984.61
2019-04-07T02:17:07.825Z,984.58
2019-04-07T02:18:08.011Z,984.52
2019-04-07T02:19:08.680Z,984.53
2019-04-07T02:20:07.936Z,984.51
2019-04-07T02:21:08.452Z,984.53
2019-04-07T02:22:07.807Z,984.51
2019-04-07T02:23:08.547Z,984.52
2019-04-07T02:24:08.053Z,984.54
2019-04-07T02:25:07.747Z,984.59
2019-04-07T02:26:08.187Z,984.62
2019-04-07T02:27:07.729Z,984.58
2019-04-07T02:28:07.713Z,984.53
2019-04-07T02:29:08.014Z,984.55
2019-04-07T02:30:07.888Z,984.52
2019-04-07T02:31:08.119Z,984.52
2019-04-07T02:32:08.000Z,984.53
2019-04-07T02:33:08.453Z,984.50
2019-04-07T02:34:07.640Z,984.52
2019-04-07T02:35:08.482Z,984.48
2019-04-07T02:36:17.996Z,984.46
2019-04-07T02:37:08.635Z,984.47
2019-04-07T02:38:08.274Z,984.44
2019-04-07T02:39:07.590Z,984.38
2019-04-07T02:40:07.611Z,984.38
2019-04-07T02:41:08.834Z,984.45
2019-04-07T02:42:07.566Z,984.37
2019-04-07T02:43:08.431Z,984.39
2019-04-07T02:44:07.630Z,984.31
2019-04-07T02:45:07.645Z,984.36
2019-04-07T02:46:07.508Z,984.31
2019-04-07T02:47:08.224Z,984.36
2019-04-07T02:48:07.484Z,984.34
2019-04-07T02:49:08.186Z,984.41
2019-04-07T02:50:07.465Z,984.38
2019-04-07T02:51:07.748Z,984.40
2019-04-07T02:52:07.641Z,984.43
2019-04-07T02:53:07.661Z,984.33
2019-04-07T02:54:07.797Z,984.36
2019-04-07T02:55:07.417Z,984.29
2019-04-07T02:56:08.121Z,984.30
2019-04-07T02:57:08.001Z,984.35
2019-04-07T02:58:07.803Z,984.38
2019-04-07T02:59:07.913Z,984.34
2019-04-07T03:00:07.665Z,984.43
2019-04-07T03:01:07.345Z,984.33
2019-04-07T03:02:08.192Z,984.31
2019-04-07T03:03:07.318Z,984.31
2019-04-07T03:04:07.469Z,984.30
2019-04-07T03:05:08.172Z,984.31
2019-04-07T03:06:07.294Z,984.33
2019-04-07T03:07:07.278Z,984.29
2019-04-07T03:08:07.786Z,984.31
2019-04-07T03:09:07.531Z,984.23
2019-04-07T03:10:07.692Z,984.28
2019-04-07T03:11:07.591Z,984.23
2019-04-07T03:12:07.372Z,984.23
2019-04-07T03:13:07.305Z,984.21
2019-04-07T03:14:07.244Z,984.27
2019-04-07T03:15:07.190Z,984.22
2019-04-07T03:16:07.621Z,984.25
2019-04-07T03:17:08.190Z,984.25
2019-04-07T03:18:07.151Z,984.18
2019-04-07T03:19:07.155Z,984.21
2019-04-07T03:20:07.141Z,984.17
2019-04-07T03:21:07.670Z,984.15
2019-04-07T03:22:07.108Z,984.15
2019-04-07T03:23:07.303Z,984.18
2019-04-07T03:24:07.839Z,984.18
2019-04-07T03:25:07.145Z,984.19
2019-04-07T03:26:07.876Z,984.19
2019-04-07T03:27:08.052Z,984.09
2019-04-07T03:28:07.041Z,984.13
2019-04-07T03:29:07.051Z,984.15
2019-04-07T03:30:07.027Z,984.18
2019-04-07T03:31:07.239Z,984.15
2019-04-07T03:32:08.509Z,984.09
2019-04-07T03:33:11.080Z,984.14
2019-04-07T03:34:09.323Z,984.09
2019-04-07T03:35:07.417Z,984.15
2019-04-07T03:36:10.763Z,984.11
2019-04-07T03:37:21.773Z,984.08
2019-04-07T03:38:07.929Z,984.07
2019-04-07T03:39:06.918Z,984.03
2019-04-07T03:40:06.913Z,984.03
2019-04-07T03:41:07.305Z,984.08
2019-04-07T03:42:06.886Z,984.10
2019-04-07T03:43:07.125Z,984.04
2019-04-07T03:44:07.743Z,984.03
2019-04-07T03:45:06.851Z,984.01
2019-04-07T03:46:07.761Z,983.99
2019-04-07T03:47:07.240Z,984.01
2019-04-07T03:48:07.069Z,983.98
2019-04-07T03:49:07.258Z,983.97
2019-04-07T03:50:07.175Z,983.98
2019-04-07T03:51:06.900Z,984.00
2019-04-07T03:52:07.104Z,983.91
2019-04-07T03:53:06.781Z,983.97
2019-04-07T03:54:07.178Z,983.87
2019-04-07T03:55:06.851Z,983.92
2019-04-07T03:56:06.735Z,983.92
2019-04-07T03:57:07.007Z,983.96
2019-04-07T03:58:07.875Z,983.93
2019-04-07T03:59:07.434Z,983.97
2019-04-07T04:00:06.694Z,983.93
2019-04-07T04:01:06.693Z,983.92
2019-04-07T04:02:06.812Z,983.85
2019-04-07T04:03:06.765Z,983.79
2019-04-07T04:04:07.406Z,983.84
2019-04-07T04:05:06.928Z,983.86
2019-04-07T04:06:06.897Z,983.80
2019-04-07T04:07:20.345Z,983.81
2019-04-07T04:08:07.595Z,983.77
2019-04-07T04:09:06.598Z,983.79
2019-04-07T04:10:06.758Z,983.80
2019-04-07T04:11:06.561Z,983.74
2019-04-07T04:12:07.210Z,983.86
2019-04-07T04:13:07.054Z,983.82
2019-04-07T04:14:06.527Z,983.88
2019-04-07T04:15:06.907Z,983.89
2019-04-07T04:16:06.507Z,983.94
2019-04-07T04:17:06.502Z,983.95
2019-04-07T04:18:06.647Z,984.02
2019-04-07T04:19:06.830Z,983.99
2019-04-07T04:20:06.554Z,984.02
2019-04-07T04:21:07.021Z,984.05
2019-04-07T04:22:07.425Z,984.09
2019-04-07T04:23:06.435Z,984.15
2019-04-07T04:24:06.422Z,984.17
2019-04-07T04:25:06.415Z,984.17
2019-04-07T04:26:06.539Z,984.14
2019-04-07T04:27:06.805Z,984.14
2019-04-07T04:28:06.672Z,984.17
2019-04-07T04:29:06.357Z,984.21
2019-04-07T04:30:06.974Z,984.21
2019-04-07T04:31:06.749Z,984.18
2019-04-07T04:32:06.329Z,984.24
2019-04-07T04:33:06.352Z,984.20
2019-04-07T04:34:06.313Z,984.25
2019-04-07T04:35:06.632Z,984.28
2019-04-07T04:36:06.312Z,984.27
2019-04-07T04:37:06.273Z,984.27
2019-04-07T04:38:06.284Z,984.26
2019-04-07T04:39:06.542Z,984.21
2019-04-07T04:40:07.177Z,984.26
2019-04-07T04:41:06.897Z,984.34
2019-04-07T04:42:07.023Z,984.28
2019-04-07T04:43:06.207Z,984.30
2019-04-07T04:44:06.648Z,984.24
2019-04-07T04:45:06.332Z,984.24
2019-04-07T04:46:09.391Z,984.22
2019-04-07T04:47:06.161Z,984.18
2019-04-07T04:48:06.753Z,984.25
2019-04-07T04:49:06.669Z,984.26
2019-04-07T04:50:06.724Z,984.33
2019-04-07T04:51:06.649Z,984.41
2019-04-07T04:52:06.106Z,984.47
2019-04-07T04:53:06.230Z,984.45
2019-04-07T04:54:07.002Z,984.47
2019-04-07T04:55:07.060Z,984.48
2019-04-07T04:56:06.066Z,984.44
2019-04-07T04:57:08.025Z,984.42
2019-04-07T04:58:06.037Z,984.45
2019-04-07T04:59:06.083Z,984.48
2019-04-07T05:00:06.219Z,984.43
2019-04-07T05:01:06.372Z,984.49
2019-04-07T05:02:05.997Z,984.43
2019-04-07T05:03:05.989Z,984.47
2019-04-07T05:04:06.303Z,984.48
2019-04-07T05:05:09.002Z,984.52
2019-04-07T05:06:06.682Z,984.51
2019-04-07T05:07:05.963Z,984.54
2019-04-07T05:08:06.809Z,984.53
2019-04-07T05:09:06.823Z,984.48
2019-04-07T05:10:06.763Z,984.49
2019-04-07T05:11:05.900Z,984.47
2019-04-07T05:12:06.789Z,984.45
2019-04-07T05:13:05.877Z,984.48
2019-04-07T05:14:05.935Z,984.48
2019-04-07T05:15:06.344Z,984.53
2019-04-07T05:16:05.849Z,984.49
2019-04-07T05:17:06.283Z,984.49
2019-04-07T05:18:06.439Z,984.51
2019-04-07T05:19:06.206Z,984.47
2019-04-07T05:20:05.899Z,984.56
2019-04-07T05:21:05.825Z,984.57
2019-04-07T05:22:06.011Z,984.61
2019-04-07T05:23:05.762Z,984.58
2019-04-07T05:24:05.768Z,984.58
2019-04-07T05:25:06.862Z,984.59
2019-04-07T05:26:05.787Z,984.63
2019-04-07T05:27:06.398Z,984.64
2019-04-07T05:28:05.893Z,984.68
2019-04-07T05:29:05.941Z,984.63
2019-04-07T05:30:05.685Z,984.62
2019-04-07T05:31:05.757Z,984.68
2019-04-07T05:32:05.738Z,984.71
2019-04-07T05:33:05.670Z,984.70
2019-04-07T05:34:06.515Z,984.67
2019-04-07T05:35:06.015Z,984.71
2019-04-07T05:36:05.937Z,984.76
2019-04-07T05:37:05.608Z,984.71
2019-04-07T05:38:06.820Z,984.70
2019-04-07T05:39:05.605Z,984.70
2019-04-07T05:40:05.840Z,984.72
2019-04-07T05:41:05.580Z,984.65
2019-04-07T05:42:05.555Z,984.64
2019-04-07T05:43:06.312Z,984.76
2019-04-07T05:44:06.186Z,984.70
2019-04-07T05:45:06.446Z,984.73
2019-04-07T05:46:07.353Z,984.69
2019-04-07T05:47:06.044Z,984.75
2019-04-07T05:48:05.495Z,984.75
2019-04-07T05:49:05.503Z,984.81
2019-04-07T05:50:06.186Z,984.77
2019-04-07T05:51:05.570Z,984.81
2019-04-07T05:52:06.038Z,984.83
2019-04-07T05:53:06.823Z,984.79
2019-04-07T05:54:07.150Z,984.72
2019-04-07T05:55:05.407Z,984.74
2019-04-07T05:56:06.078Z,984.82
2019-04-07T05:57:05.504Z,984.83
2019-04-07T05:58:07.291Z,984.82
2019-04-07T05:59:06.078Z,984.89
2019-04-07T06:00:05.847Z,984.75
2019-04-07T06:01:05.344Z,984.84
2019-04-07T06:02:05.333Z,984.78
2019-04-07T06:03:07.894Z,984.81
2019-04-07T06:04:05.635Z,984.80
2019-04-07T06:05:05.408Z,984.79
2019-04-07T06:06:05.449Z,984.79
2019-04-07T06:07:05.888Z,984.80
2019-04-07T06:08:21.070Z,984.79
2019-04-07T06:09:06.413Z,984.85
2019-04-07T06:10:05.424Z,984.83
2019-04-07T06:11:05.252Z,984.78
2019-04-07T06:12:09.065Z,984.87
2019-04-07T06:13:05.397Z,984.75
2019-04-07T06:14:05.718Z,984.85
2019-04-07T06:15:05.315Z,984.80
2019-04-07T06:16:05.361Z,984.76
2019-04-07T06:17:05.162Z,984.76
2019-04-07T06:18:05.196Z,984.76
2019-04-07T06:19:07.889Z,984.86
2019-04-07T06:20:05.193Z,984.87
2019-04-07T06:21:05.117Z,984.93
2019-04-07T06:22:07.517Z,984.88
2019-04-07T06:23:05.098Z,984.95
2019-04-07T06:24:05.137Z,984.86
2019-04-07T06:25:05.869Z,984.94
2019-04-07T06:26:09.316Z,984.92
2019-04-07T06:27:06.056Z,984.87
2019-04-07T06:28:05.459Z,984.94
2019-04-07T06:29:05.040Z,984.90
2019-04-07T06:30:05.028Z,984.91
2019-04-07T06:31:05.012Z,984.99
2019-04-07T06:32:07.737Z,984.93
2019-04-07T06:33:06.942Z,984.90
2019-04-07T06:34:08.146Z,984.88
2019-04-07T06:35:05.978Z,984.91
2019-04-07T06:36:05.063Z,984.92
2019-04-07T06:37:05.628Z,984.95
2019-04-07T06:38:06.642Z,984.95
2019-04-07T06:39:04.920Z,984.96
2019-04-07T06:40:05.604Z,984.99
2019-04-07T06:41:04.896Z,984.95
2019-04-07T06:42:05.825Z,984.97
2019-04-07T06:43:06.412Z,985.03
2019-04-07T06:44:12.953Z,984.98
2019-04-07T06:45:06.302Z,985.03
2019-04-07T06:46:04.927Z,985.02
2019-04-07T06:47:04.830Z,985.03
2019-04-07T06:48:07.802Z,985.01
2019-04-07T06:49:04.809Z,985.03
2019-04-07T06:50:05.653Z,984.99
2019-04-07T06:51:04.998Z,985.00
2019-04-07T06:52:04.914Z,984.96
2019-04-07T06:53:05.360Z,984.99
2019-04-07T06:54:04.847Z,984.90
2019-04-07T06:55:04.731Z,984.97
2019-04-07T06:56:05.219Z,984.90
2019-04-07T06:57:06.340Z,984.95
2019-04-07T06:58:07.582Z,984.92
2019-04-07T06:59:04.697Z,984.96
2019-04-07T07:00:04.686Z,985.01
2019-04-07T07:01:04.733Z,985.01
2019-04-07T07:02:05.425Z,985.01
2019-04-07T07:03:04.680Z,984.99
2019-04-07T07:04:08.607Z,984.98
2019-04-07T07:05:05.623Z,984.92
2019-04-07T07:06:04.747Z,984.95
2019-04-07T07:07:06.258Z,984.95
2019-04-07T07:08:05.176Z,984.97
2019-04-07T07:09:04.595Z,984.94
2019-04-07T07:10:06.355Z,984.94
2019-04-07T07:11:05.803Z,984.93
2019-04-07T07:12:05.098Z,984.90
2019-04-07T07:13:09.568Z,984.94
2019-04-07T07:14:06.171Z,984.91
2019-04-07T07:15:04.676Z,985.07
2019-04-07T07:16:08.805Z,984.92
2019-04-07T07:17:05.511Z,984.90
2019-04-07T07:18:04.685Z,984.84
2019-04-07T07:19:05.208Z,984.86
2019-04-07T07:20:05.690Z,984.86
2019-04-07T07:21:05.089Z,984.86
2019-04-07T07:22:10.035Z,984.84
2019-04-07T07:23:05.898Z,984.96
2019-04-07T07:24:04.946Z,984.86
2019-04-07T07:25:05.167Z,984.85
2019-04-07T07:26:04.469Z,984.92
2019-04-07T07:27:07.282Z,984.87
2019-04-07T07:28:04.512Z,984.87
2019-04-07T07:29:06.415Z,984.84
2019-04-07T07:30:04.350Z,984.89
2019-04-07T07:31:04.391Z,984.79
2019-04-07T07:32:04.942Z,984.83
2019-04-07T07:33:07.358Z,984.91
2019-04-07T07:34:05.396Z,984.88
2019-04-07T07:35:05.063Z,984.88
2019-04-07T07:36:04.496Z,984.84
2019-04-07T07:37:05.153Z,984.87
2019-04-07T07:38:04.920Z,984.92
2019-04-07T07:39:08.732Z,984.89
2019-04-07T07:40:07.912Z,984.86
2019-04-07T07:41:04.790Z,984.85
2019-04-07T07:42:04.382Z,984.89
2019-04-07T07:43:04.429Z,984.90
2019-04-07T07:44:07.480Z,984.92
2019-04-07T07:45:08.270Z,984.94
2019-04-07T07:46:05.602Z,984.93
2019-04-07T07:47:04.176Z,984.90
2019-04-07T07:48:04.230Z,984.88
2019-04-07T07:49:04.251Z,984.99
2019-04-07T07:50:05.408Z,984.91
2019-04-07T07:51:06.880Z,985.00
2019-04-07T07:52:04.877Z,984.93
2019-04-07T07:53:04.731Z,984.98
2019-04-07T07:54:04.652Z,984.95
2019-04-07T07:55:04.085Z,984.96
2019-04-07T07:56:08.431Z,984.95
2019-04-07T07:57:05.056Z,984.92
2019-04-07T07:58:04.118Z,984.95
2019-04-07T07:59:04.515Z,984.98
2019-04-07T08:00:06.115Z,984.97
2019-04-07T08:01:04.316Z,984.97
2019-04-07T08:02:03.996Z,985.02
2019-04-07T08:03:04.801Z,984.97
2019-04-07T08:04:03.970Z,985.02
2019-04-07T08:05:03.997Z,985.02
2019-04-07T08:06:07.399Z,985.00
2019-04-07T08:07:04.331Z,984.92
2019-04-07T08:08:04.692Z,984.97
2019-04-07T08:09:11.933Z,984.98
2019-04-07T08:10:04.933Z,984.99
2019-04-07T08:11:04.544Z,985.08
2019-04-07T08:12:03.889Z,985.05
2019-04-07T08:13:07.447Z,985.00
2019-04-07T08:14:03.887Z,985.05
2019-04-07T08:15:03.855Z,985.02
2019-04-07T08:16:03.843Z,984.99
2019-04-07T08:17:04.149Z,985.06
2019-04-07T08:18:07.160Z,985.08
2019-04-07T08:19:04.018Z,985.14
2019-04-07T08:20:03.797Z,985.03
2019-04-07T08:21:04.339Z,985.04
2019-04-07T08:22:03.781Z,985.10
2019-04-07T08:23:03.760Z,985.10
2019-04-07T08:24:03.762Z,985.18
2019-04-07T08:25:04.132Z,985.10
2019-04-07T08:26:03.945Z,985.10
2019-04-07T08:27:04.075Z,985.20
2019-04-07T08:28:04.664Z,985.18
2019-04-07T08:29:06.743Z,985.18
2019-04-07T08:30:03.855Z,985.16
2019-04-07T08:31:04.398Z,985.20
2019-04-07T08:32:04.200Z,985.16
2019-04-07T08:33:03.650Z,985.16
2019-04-07T08:34:03.824Z,985.15
2019-04-07T08:35:05.624Z,985.23
2019-04-07T08:36:04.351Z,985.20
2019-04-07T08:37:03.802Z,985.19
2019-04-07T08:38:04.552Z,985.25
2019-04-07T08:39:03.848Z,985.23
2019-04-07T08:40:07.168Z,985.25
2019-04-07T08:41:04.181Z,985.20
2019-04-07T08:42:09.613Z,985.28
2019-04-07T08:43:04.537Z,985.29
2019-04-07T08:44:03.692Z,985.25
2019-04-07T08:45:03.569Z,985.18
2019-04-07T08:46:04.756Z,985.29
2019-04-07T08:47:03.496Z,985.28
2019-04-07T08:48:04.146Z,985.27
2019-04-07T08:49:03.656Z,985.29
2019-04-07T08:50:03.462Z,985.36
2019-04-07T08:51:03.656Z,985.28
2019-04-07T08:52:08.609Z,985.34
2019-04-07T08:53:04.430Z,985.31
2019-04-07T08:54:04.700Z,985.34
2019-04-07T08:55:03.408Z,985.32
2019-04-07T08:56:03.805Z,985.32
2019-04-07T08:57:03.448Z,985.35
2019-04-07T08:58:04.671Z,985.32
2019-04-07T08:59:03.879Z,985.36
2019-04-07T09:00:03.947Z,985.40
2019-04-07T09:01:03.425Z,985.42
2019-04-07T09:02:03.374Z,985.40
2019-04-07T09:03:09.736Z,985.40
2019-04-07T09:04:04.486Z,985.42
2019-04-07T09:05:03.289Z,985.42
2019-04-07T09:06:04.572Z,985.46
2019-04-07T09:07:04.381Z,985.39
2019-04-07T09:08:05.875Z,985.43
2019-04-07T09:09:04.016Z,985.48
2019-04-07T09:10:03.650Z,985.49
2019-04-07T09:11:03.341Z,985.47
2019-04-07T09:12:03.904Z,985.44
2019-04-07T09:13:06.606Z,985.44
2019-04-07T09:14:07.017Z,985.46
2019-04-07T09:15:05.130Z,985.49
2019-04-07T09:16:03.601Z,985.45
2019-04-07T09:17:04.664Z,985.50
2019-04-07T09:18:03.372Z,985.53
2019-04-07T09:19:06.032Z,985.45
2019-04-07T09:20:07.563Z,985.49
2019-04-07T09:21:04.590Z,985.54
2019-04-07T09:22:03.104Z,985.44
2019-04-07T09:23:03.089Z,985.47
2019-04-07T09:24:03.797Z,985.54
2019-04-07T09:25:06.270Z,985.50
2019-04-07T09:26:04.079Z,985.45
2019-04-07T09:27:03.380Z,985.46
2019-04-07T09:28:03.262Z,985.44
2019-04-07T09:29:03.023Z,985.49
2019-04-07T09:30:05.871Z,985.53
2019-04-07T09:31:04.426Z,985.50
2019-04-07T09:32:02.987Z,985.46
2019-04-07T09:33:03.351Z,985.56
2019-04-07T09:34:03.051Z,985.52
2019-04-07T09:35:04.143Z,985.49
2019-04-07T09:36:03.563Z,985.51
2019-04-07T09:37:03.314Z,985.48
2019-04-07T09:38:03.162Z,985.49
2019-04-07T09:39:03.917Z,985.55
2019-04-07T09:40:04.443Z,985.55
2019-04-07T09:41:03.564Z,985.48
2019-04-07T09:42:03.147Z,985.49
2019-04-07T09:43:03.142Z,985.51
2019-04-07T09:44:03.766Z,985.50
2019-04-07T09:45:03.327Z,985.51
2019-04-07T09:46:03.504Z,985.57
2019-04-07T09:47:02.832Z,985.61
2019-04-07T09:48:02.845Z,985.53
2019-04-07T09:49:03.450Z,985.58
2019-04-07T09:50:03.593Z,985.56
2019-04-07T09:51:06.901Z,985.59
2019-04-07T09:52:02.844Z,985.62
2019-04-07T09:53:02.764Z,985.64
2019-04-07T09:54:03.028Z,985.66
2019-04-07T09:55:02.760Z,985.72
2019-04-07T09:56:02.795Z,985.67
2019-04-07T09:57:05.941Z,985.73
2019-04-07T09:58:02.697Z,985.70
2019-04-07T09:59:03.515Z,985.78
2019-04-07T10:00:02.903Z,985.74
2019-04-07T10:01:02.690Z,985.76
2019-04-07T10:02:05.906Z,985.77
2019-04-07T10:03:05.959Z,985.76
2019-04-07T10:04:07.074Z,985.82
2019-04-07T10:05:02.628Z,985.78
2019-04-07T10:06:02.614Z,985.74
2019-04-07T10:07:02.706Z,985.82
2019-04-07T10:08:03.306Z,985.86
2019-04-07T10:09:03.321Z,985.88
2019-04-07T10:10:10.270Z,985.83
2019-04-07T10:11:04.224Z,985.79
2019-04-07T10:12:02.839Z,985.78
2019-04-07T10:13:03.125Z,985.78
2019-04-07T10:14:03.333Z,985.78
2019-04-07T10:15:02.520Z,985.86
2019-04-07T10:16:02.507Z,985.83
2019-04-07T10:17:02.944Z,985.81
2019-04-07T10:18:02.499Z,985.91
2019-04-07T10:19:03.124Z,985.89
2019-04-07T10:20:02.509Z,985.85
2019-04-07T10:21:03.227Z,985.87
2019-04-07T10:22:03.497Z,985.86
2019-04-07T10:23:03.010Z,985.90
2019-04-07T10:24:02.811Z,985.83
2019-04-07T10:25:02.486Z,985.82
2019-04-07T10:26:03.986Z,985.78
2019-04-07T10:27:02.413Z,985.80
2019-04-07T10:28:02.956Z,985.84
2019-04-07T10:29:02.807Z,985.89
2019-04-07T10:30:02.551Z,985.86
2019-04-07T10:31:02.480Z,985.83
2019-04-07T10:32:02.486Z,985.80
2019-04-07T10:33:03.094Z,985.76
2019-04-07T10:34:03.055Z,985.73
2019-04-07T10:35:02.559Z,985.78
2019-04-07T10:36:03.315Z,985.75
2019-04-07T10:37:04.685Z,985.85
2019-04-07T10:38:02.624Z,985.85
2019-04-07T10:39:03.440Z,985.86
2019-04-07T10:40:03.108Z,985.87
2019-04-07T10:41:03.057Z,985.92
2019-04-07T10:42:02.678Z,985.92
2019-04-07T10:43:03.054Z,985.98
2019-04-07T10:44:02.273Z,985.91
2019-04-07T10:45:02.267Z,986.01
2019-04-07T10:46:02.388Z,986.06
2019-04-07T10:47:02.566Z,986.17
2019-04-07T10:48:03.072Z,986.14
2019-04-07T10:49:04.310Z,986.04
2019-04-07T10:50:07.044Z,986.18
2019-04-07T10:51:04.395Z,986.33
2019-04-07T10:52:02.871Z,986.16
2019-04-07T10:53:02.705Z,986.42
2019-04-07T10:54:02.621Z,986.38
2019-04-07T10:55:02.871Z,986.37
2019-04-07T10:56:02.323Z,986.22
2019-04-07T10:57:02.289Z,986.34
2019-04-07T10:58:02.046Z,986.21
2019-04-07T10:59:02.039Z,986.14
2019-04-07T11:00:02.066Z,986.03
2019-04-07T11:01:02.863Z,986.07
2019-04-07T11:02:02.510Z,986.07
2019-04-07T11:03:02.108Z,986.03
2019-04-07T11:04:02.000Z,986.04
2019-04-07T11:05:02.026Z,985.98
2019-04-07T11:06:01.987Z,985.93
2019-04-07T11:07:02.039Z,985.93
2019-04-07T11:08:02.465Z,985.94
2019-04-07T11:09:03.482Z,985.95
2019-04-07T11:10:03.511Z,986.03
2019-04-07T11:11:01.895Z,986.01
2019-04-07T11:12:01.943Z,986.00
2019-04-07T11:13:01.876Z,986.02
2019-04-07T11:14:01.872Z,985.98
2019-04-07T11:15:02.526Z,986.07
2019-04-07T11:16:01.840Z,985.99
2019-04-07T11:17:02.467Z,985.99
2019-04-07T11:18:01.821Z,985.96
2019-04-07T11:19:02.033Z,985.90
2019-04-07T11:20:02.887Z,985.95
2019-04-07T11:21:02.203Z,985.91
2019-04-07T11:22:01.781Z,985.89
2019-04-07T11:23:02.012Z,985.93
2019-04-07T11:24:01.757Z,985.96
2019-04-07T11:25:01.741Z,986.02
2019-04-07T11:26:02.482Z,986.05
2019-04-07T11:27:02.962Z,986.19
2019-04-07T11:28:02.586Z,986.13
2019-04-07T11:29:02.712Z,986.16
2019-04-07T11:30:01.698Z,986.18
2019-04-07T11:31:02.263Z,986.23
2019-04-07T11:32:01.830Z,986.22
2019-04-07T11:33:01.901Z,986.26
2019-04-07T11:34:01.646Z,986.15
2019-04-07T11:35:01.748Z,986.23
2019-04-07T11:36:02.402Z,986.13
2019-04-07T11:37:01.804Z,986.09
2019-04-07T11:38:01.615Z,986.11
2019-04-07T11:39:02.490Z,986.08
2019-04-07T11:40:02.216Z,986.07
2019-04-07T11:41:01.594Z,986.01
2019-04-07T11:42:01.557Z,986.02
2019-04-07T11:43:02.230Z,986.09
2019-04-07T11:44:01.990Z,985.88
2019-04-07T11:45:01.548Z,985.91
2019-04-07T11:46:03.306Z,985.85
2019-04-07T11:47:02.236Z,985.86
2019-04-07T11:48:01.497Z,985.85
2019-04-07T11:49:02.461Z,985.91
2019-04-07T11:50:01.555Z,986.10
2019-04-07T11:51:02.084Z,986.30
2019-04-07T11:52:01.717Z,986.34
2019-04-07T11:53:01.840Z,985.98
2019-04-07T11:54:01.673Z,985.95
2019-04-07T11:55:02.133Z,986.11
2019-04-07T11:56:06.913Z,986.02
2019-04-07T11:57:03.327Z,985.98
2019-04-07T11:58:11.516Z,985.99
2019-04-07T11:59:02.678Z,986.00
2019-04-07T12:00:02.343Z,986.17
2019-04-07T12:01:01.348Z,985.89
2019-04-07T12:02:01.926Z,985.95
2019-04-07T12:03:01.368Z,986.02
2019-04-07T12:04:02.407Z,985.98
2019-04-07T12:05:01.602Z,985.91
2019-04-07T12:06:01.402Z,986.05
2019-04-07T12:07:01.304Z,985.93
2019-04-07T12:08:01.728Z,985.98
2019-04-07T12:09:02.162Z,985.97
2019-04-07T12:10:01.269Z,985.93
2019-04-07T12:11:04.942Z,985.91
2019-04-07T12:12:01.239Z,985.88
2019-04-07T12:13:01.226Z,985.95
2019-04-07T12:14:01.213Z,985.90
2019-04-07T12:15:02.157Z,985.94
2019-04-07T12:16:02.025Z,985.96
2019-04-07T12:17:05.742Z,985.98
2019-04-07T12:18:02.175Z,985.99
2019-04-07T12:19:01.156Z,985.89
2019-04-07T12:20:01.349Z,985.94
2019-04-07T12:21:04.171Z,985.97
2019-04-07T12:22:01.253Z,985.93
2019-04-07T12:23:01.595Z,985.84
2019-04-07T12:24:01.619Z,985.89
2019-04-07T12:25:03.205Z,985.91
2019-04-07T12:26:04.261Z,985.88
2019-04-07T12:27:01.925Z,985.88
2019-04-07T12:28:01.076Z,985.85